sensor_id;sensor_type;location;lat;lon;timestamp;P1;durP1;ratioP1;P2;durP2;ratioP2
73283;SDS011;61519;60.050;18.582;2023-02-05T00:01:13;4.03;;;2.30;;
73283;SDS011;61519;60.050;18.582;2023-02-05T00:03:39;3.63;;;2.33;;
73283;SDS011;61519;60.050;18.582;2023-02-05T00:06:04;5.83;;;3.00;;
73283;SDS011;61519;60.050;18.582;2023-02-05T00:08:30;4.53;;;2.30;;
73283;SDS011;61519;60.050;18.582;2023-02-05T00:10:55;4.03;;;2.50;;
73283;SDS011;61519;60.050;18.582;2023-02-05T00:13:21;3.75;;;2.25;;
73283;SDS011;61519;60.050;18.582;2023-02-05T00:15:47;3.13;;;2.10;;
73283;SDS011;61519;60.050;18.582;2023-02-05T00:18:12;4.67;;;2.03;;
73283;SDS011;61519;60.050;18.582;2023-02-05T00:20:37;3.63;;;2.08;;
73283;SDS011;61519;60.050;18.582;2023-02-05T00:23:03;3.70;;;2.15;;
73283;SDS011;61519;60.050;18.582;2023-02-05T00:25:28;4.73;;;2.03;;
73283;SDS011;61519;60.050;18.582;2023-02-05T00:27:54;4.37;;;1.87;;
73283;SDS011;61519;60.050;18.582;2023-02-05T00:30:20;3.35;;;2.13;;
73283;SDS011;61519;60.050;18.582;2023-02-05T00:32:45;3.40;;;2.05;;
73283;SDS011;61519;60.050;18.582;2023-02-05T00:35:10;3.35;;;1.88;;
73283;SDS011;61519;60.050;18.582;2023-02-05T00:37:36;4.47;;;2.17;;
73283;SDS011;61519;60.050;18.582;2023-02-05T00:40:02;5.00;;;2.63;;
73283;SDS011;61519;60.050;18.582;2023-02-05T00:42:28;3.90;;;2.20;;
73283;SDS011;61519;60.050;18.582;2023-02-05T00:44:53;2.75;;;1.63;;
73283;SDS011;61519;60.050;18.582;2023-02-05T00:47:19;3.53;;;1.50;;
73283;SDS011;61519;60.050;18.582;2023-02-05T00:49:44;3.70;;;2.50;;
73283;SDS011;61519;60.050;18.582;2023-02-05T00:52:09;3.93;;;2.00;;
73283;SDS011;61519;60.050;18.582;2023-02-05T00:54:35;3.30;;;1.90;;
73283;SDS011;61519;60.050;18.582;2023-02-05T00:57:00;5.27;;;2.20;;
73283;SDS011;61519;60.050;18.582;2023-02-05T00:59:25;3.45;;;2.05;;
73283;SDS011;61519;60.050;18.582;2023-02-05T01:01:51;3.27;;;2.20;;
73283;SDS011;61519;60.050;18.582;2023-02-05T01:04:16;4.80;;;2.23;;
73283;SDS011;61519;60.050;18.582;2023-02-05T01:06:42;3.50;;;2.20;;
73283;SDS011;61519;60.050;18.582;2023-02-05T01:09:07;3.40;;;2.33;;
73283;SDS011;61519;60.050;18.582;2023-02-05T01:11:32;3.50;;;2.40;;
73283;SDS011;61519;60.050;18.582;2023-02-05T01:13:58;4.17;;;2.00;;
73283;SDS011;61519;60.050;18.582;2023-02-05T02:45:52;3.40;;;1.63;;
73283;SDS011;61519;60.050;18.582;2023-02-05T02:48:20;2.42;;;1.35;;
73283;SDS011;61519;60.050;18.582;2023-02-05T02:50:48;3.28;;;1.75;;
73283;SDS011;61519;60.050;18.582;2023-02-05T02:53:18;2.28;;;1.30;;
73283;SDS011;61519;60.050;18.582;2023-02-05T02:55:46;4.82;;;1.98;;
73283;SDS011;61519;60.050;18.582;2023-02-05T02:58:24;3.78;;;1.98;;
73283;SDS011;61519;60.050;18.582;2023-02-05T03:00:52;3.00;;;1.60;;
73283;SDS011;61519;60.050;18.582;2023-02-05T03:03:18;4.70;;;1.73;;
73283;SDS011;61519;60.050;18.582;2023-02-05T03:05:46;5.07;;;1.98;;
73283;SDS011;61519;60.050;18.582;2023-02-05T03:08:15;3.97;;;1.48;;
73283;SDS011;61519;60.050;18.582;2023-02-05T03:11:03;3.70;;;1.77;;
73283;SDS011;61519;60.050;18.582;2023-02-05T03:13:31;3.25;;;1.80;;
73283;SDS011;61519;60.050;18.582;2023-02-05T03:15:56;5.70;;;1.77;;
73283;SDS011;61519;60.050;18.582;2023-02-05T03:18:22;2.60;;;1.63;;
73283;SDS011;61519;60.050;18.582;2023-02-05T03:20:52;6.43;;;1.90;;
73283;SDS011;61519;60.050;18.582;2023-02-05T03:23:19;2.03;;;1.20;;
73283;SDS011;61519;60.050;18.582;2023-02-05T03:25:45;3.80;;;1.60;;
73283;SDS011;61519;60.050;18.582;2023-02-05T03:28:10;3.90;;;1.47;;
73283;SDS011;61519;60.050;18.582;2023-02-05T03:40:27;2.40;;;1.45;;
73283;SDS011;61519;60.050;18.582;2023-02-05T03:45:55;4.13;;;1.90;;
73283;SDS011;61519;60.050;18.582;2023-02-05T03:56:51;2.65;;;1.45;;
73283;SDS011;61519;60.050;18.582;2023-02-05T03:59:16;2.33;;;1.30;;
73283;SDS011;61519;60.050;18.582;2023-02-05T04:01:43;3.53;;;1.40;;
73283;SDS011;61519;60.050;18.582;2023-02-05T04:04:09;3.10;;;1.73;;
73283;SDS011;61519;60.050;18.582;2023-02-05T04:06:35;3.10;;;1.70;;
73283;SDS011;61519;60.050;18.582;2023-02-05T04:09:00;2.93;;;1.43;;
73283;SDS011;61519;60.050;18.582;2023-02-05T04:11:25;3.87;;;1.60;;
73283;SDS011;61519;60.050;18.582;2023-02-05T04:13:50;2.30;;;1.23;;
73283;SDS011;61519;60.050;18.582;2023-02-05T04:16:16;2.80;;;1.45;;
73283;SDS011;61519;60.050;18.582;2023-02-05T04:18:41;3.05;;;1.58;;
73283;SDS011;61519;60.050;18.582;2023-02-05T04:21:06;2.37;;;1.17;;
73283;SDS011;61519;60.050;18.582;2023-02-05T04:23:32;3.40;;;1.53;;
73283;SDS011;61519;60.050;18.582;2023-02-05T04:25:57;3.13;;;1.43;;
73283;SDS011;61519;60.050;18.582;2023-02-05T04:28:22;2.73;;;1.47;;
73283;SDS011;61519;60.050;18.582;2023-02-05T04:30:48;2.40;;;1.30;;
73283;SDS011;61519;60.050;18.582;2023-02-05T04:33:13;2.67;;;1.50;;
73283;SDS011;61519;60.050;18.582;2023-02-05T04:35:38;2.73;;;1.60;;
73283;SDS011;61519;60.050;18.582;2023-02-05T04:38:04;3.37;;;1.80;;
73283;SDS011;61519;60.050;18.582;2023-02-05T04:40:29;4.70;;;1.80;;
73283;SDS011;61519;60.050;18.582;2023-02-05T04:42:54;2.37;;;1.30;;
73283;SDS011;61519;60.050;18.582;2023-02-05T04:45:20;2.73;;;1.27;;
73283;SDS011;61519;60.050;18.582;2023-02-05T04:47:46;2.72;;;1.75;;
73283;SDS011;61519;60.050;18.582;2023-02-05T04:50:12;2.65;;;1.30;;
73283;SDS011;61519;60.050;18.582;2023-02-05T04:52:37;3.20;;;1.83;;
73283;SDS011;61519;60.050;18.582;2023-02-05T04:55:02;2.57;;;1.40;;
73283;SDS011;61519;60.050;18.582;2023-02-05T04:57:29;2.63;;;1.20;;
73283;SDS011;61519;60.050;18.582;2023-02-05T04:59:55;2.28;;;1.15;;
73283;SDS011;61519;60.050;18.582;2023-02-05T05:02:20;3.33;;;1.77;;
73283;SDS011;61519;60.050;18.582;2023-02-05T05:04:47;2.40;;;1.33;;
73283;SDS011;61519;60.050;18.582;2023-02-05T05:07:12;2.50;;;1.27;;
73283;SDS011;61519;60.050;18.582;2023-02-05T05:09:37;2.60;;;1.33;;
73283;SDS011;61519;60.050;18.582;2023-02-05T05:12:03;3.57;;;1.50;;
73283;SDS011;61519;60.050;18.582;2023-02-05T05:14:28;2.30;;;1.30;;
73283;SDS011;61519;60.050;18.582;2023-02-05T05:16:54;2.38;;;1.20;;
73283;SDS011;61519;60.050;18.582;2023-02-05T05:19:19;3.15;;;1.48;;
73283;SDS011;61519;60.050;18.582;2023-02-05T05:21:45;2.90;;;1.80;;
73283;SDS011;61519;60.050;18.582;2023-02-05T05:24:10;4.07;;;1.30;;
73283;SDS011;61519;60.050;18.582;2023-02-05T05:26:35;3.20;;;1.53;;
73283;SDS011;61519;60.050;18.582;2023-02-05T05:29:02;3.97;;;1.60;;
73283;SDS011;61519;60.050;18.582;2023-02-05T05:31:27;2.73;;;1.23;;
73283;SDS011;61519;60.050;18.582;2023-02-05T05:33:53;2.50;;;1.20;;
73283;SDS011;61519;60.050;18.582;2023-02-05T05:36:18;2.67;;;1.30;;
73283;SDS011;61519;60.050;18.582;2023-02-05T05:38:43;2.37;;;1.20;;
73283;SDS011;61519;60.050;18.582;2023-02-05T05:41:12;5.43;;;1.33;;
73283;SDS011;61519;60.050;18.582;2023-02-05T05:44:00;2.40;;;1.30;;
73283;SDS011;61519;60.050;18.582;2023-02-05T05:46:25;3.90;;;1.30;;
73283;SDS011;61519;60.050;18.582;2023-02-05T05:48:55;2.57;;;1.40;;
73283;SDS011;61519;60.050;18.582;2023-02-05T05:51:21;3.05;;;1.27;;
73283;SDS011;61519;60.050;18.582;2023-02-05T05:53:48;3.72;;;1.50;;
73283;SDS011;61519;60.050;18.582;2023-02-05T05:56:14;2.63;;;1.40;;
73283;SDS011;61519;60.050;18.582;2023-02-05T05:58:39;5.40;;;1.30;;
73283;SDS011;61519;60.050;18.582;2023-02-05T06:01:06;2.37;;;1.20;;
73283;SDS011;61519;60.050;18.582;2023-02-05T06:03:31;2.25;;;1.20;;
73283;SDS011;61519;60.050;18.582;2023-02-05T06:06:00;4.43;;;1.90;;
73283;SDS011;61519;60.050;18.582;2023-02-05T06:08:32;5.95;;;1.63;;
73283;SDS011;61519;60.050;18.582;2023-02-05T06:10:57;3.13;;;1.43;;
73283;SDS011;61519;60.050;18.582;2023-02-05T06:13:23;3.73;;;1.47;;
73283;SDS011;61519;60.050;18.582;2023-02-05T06:15:49;2.53;;;1.25;;
73283;SDS011;61519;60.050;18.582;2023-02-05T06:18:15;2.13;;;1.00;;
73283;SDS011;61519;60.050;18.582;2023-02-05T06:20:41;2.20;;;1.00;;
73283;SDS011;61519;60.050;18.582;2023-02-05T06:23:06;6.97;;;1.57;;
73283;SDS011;61519;60.050;18.582;2023-02-05T06:25:31;2.73;;;1.53;;
73283;SDS011;61519;60.050;18.582;2023-02-05T06:27:57;3.27;;;1.63;;
73283;SDS011;61519;60.050;18.582;2023-02-05T06:30:22;2.87;;;1.20;;
73283;SDS011;61519;60.050;18.582;2023-02-05T06:32:48;4.25;;;1.40;;
73283;SDS011;61519;60.050;18.582;2023-02-05T06:35:13;4.00;;;1.53;;
73283;SDS011;61519;60.050;18.582;2023-02-05T06:37:38;2.23;;;1.13;;
73283;SDS011;61519;60.050;18.582;2023-02-05T06:40:04;3.00;;;1.10;;
73283;SDS011;61519;60.050;18.582;2023-02-05T06:42:29;2.50;;;1.40;;
73283;SDS011;61519;60.050;18.582;2023-02-05T06:44:55;3.47;;;1.00;;
73283;SDS011;61519;60.050;18.582;2023-02-05T06:47:20;3.80;;;1.27;;
73283;SDS011;61519;60.050;18.582;2023-02-05T06:49:45;2.67;;;1.27;;
73283;SDS011;61519;60.050;18.582;2023-02-05T06:52:11;1.93;;;1.07;;
73283;SDS011;61519;60.050;18.582;2023-02-05T06:54:36;3.33;;;1.30;;
73283;SDS011;61519;60.050;18.582;2023-02-05T06:57:02;2.97;;;1.40;;
73283;SDS011;61519;60.050;18.582;2023-02-05T06:59:28;2.27;;;1.00;;
73283;SDS011;61519;60.050;18.582;2023-02-05T07:01:53;2.53;;;1.20;;
73283;SDS011;61519;60.050;18.582;2023-02-05T07:04:19;5.13;;;1.43;;
73283;SDS011;61519;60.050;18.582;2023-02-05T07:06:44;2.47;;;1.20;;
73283;SDS011;61519;60.050;18.582;2023-02-05T07:09:09;2.77;;;1.43;;
73283;SDS011;61519;60.050;18.582;2023-02-05T07:11:35;2.38;;;1.08;;
73283;SDS011;61519;60.050;18.582;2023-02-05T07:14:01;2.13;;;0.93;;
73283;SDS011;61519;60.050;18.582;2023-02-05T07:16:27;3.85;;;1.25;;
73283;SDS011;61519;60.050;18.582;2023-02-05T07:18:53;12.03;;;1.40;;
73283;SDS011;61519;60.050;18.582;2023-02-05T07:21:19;12.23;;;1.73;;
73283;SDS011;61519;60.050;18.582;2023-02-05T07:23:44;4.57;;;1.60;;
73283;SDS011;61519;60.050;18.582;2023-02-05T07:26:13;3.00;;;1.13;;
73283;SDS011;61519;60.050;18.582;2023-02-05T07:28:39;2.35;;;1.23;;
73283;SDS011;61519;60.050;18.582;2023-02-05T07:31:06;3.28;;;1.30;;
73283;SDS011;61519;60.050;18.582;2023-02-05T07:33:39;2.50;;;1.30;;
73283;SDS011;61519;60.050;18.582;2023-02-05T07:36:06;2.65;;;0.90;;
73283;SDS011;61519;60.050;18.582;2023-02-05T07:38:32;2.63;;;1.20;;
73283;SDS011;61519;60.050;18.582;2023-02-05T07:41:09;3.03;;;1.00;;
73283;SDS011;61519;60.050;18.582;2023-02-05T07:43:40;5.00;;;1.48;;
73283;SDS011;61519;60.050;18.582;2023-02-05T07:46:07;2.33;;;1.13;;
73283;SDS011;61519;60.050;18.582;2023-02-05T07:48:34;3.20;;;1.07;;
73283;SDS011;61519;60.050;18.582;2023-02-05T07:51:03;2.63;;;0.98;;
73283;SDS011;61519;60.050;18.582;2023-02-05T07:53:29;2.38;;;1.10;;
73283;SDS011;61519;60.050;18.582;2023-02-05T07:55:54;2.78;;;1.20;;
73283;SDS011;61519;60.050;18.582;2023-02-05T07:58:20;2.80;;;1.40;;
73283;SDS011;61519;60.050;18.582;2023-02-05T08:00:45;3.83;;;1.30;;
73283;SDS011;61519;60.050;18.582;2023-02-05T08:03:13;2.80;;;1.37;;
73283;SDS011;61519;60.050;18.582;2023-02-05T08:05:44;1.85;;;0.90;;
73283;SDS011;61519;60.050;18.582;2023-02-05T08:08:13;3.10;;;1.40;;
73283;SDS011;61519;60.050;18.582;2023-02-05T08:10:54;2.30;;;1.02;;
73283;SDS011;61519;60.050;18.582;2023-02-05T08:13:38;3.88;;;1.35;;
73283;SDS011;61519;60.050;18.582;2023-02-05T08:16:04;2.97;;;1.30;;
73283;SDS011;61519;60.050;18.582;2023-02-05T08:18:30;13.80;;;6.57;;
73283;SDS011;61519;60.050;18.582;2023-02-05T08:20:55;8.88;;;3.55;;
73283;SDS011;61519;60.050;18.582;2023-02-05T08:23:21;7.10;;;4.43;;
73283;SDS011;61519;60.050;18.582;2023-02-05T08:25:47;4.27;;;1.90;;
73283;SDS011;61519;60.050;18.582;2023-02-05T08:28:15;6.47;;;3.93;;
73283;SDS011;61519;60.050;18.582;2023-02-05T08:30:43;2.78;;;1.38;;
73283;SDS011;61519;60.050;18.582;2023-02-05T08:33:11;2.90;;;1.47;;
73283;SDS011;61519;60.050;18.582;2023-02-05T08:35:40;4.22;;;2.13;;
73283;SDS011;61519;60.050;18.582;2023-02-05T08:38:06;3.20;;;1.53;;
73283;SDS011;61519;60.050;18.582;2023-02-05T08:40:31;6.47;;;2.10;;
73283;SDS011;61519;60.050;18.582;2023-02-05T08:42:57;4.50;;;1.60;;
73283;SDS011;61519;60.050;18.582;2023-02-05T08:45:24;5.30;;;1.70;;
73283;SDS011;61519;60.050;18.582;2023-02-05T08:47:50;2.67;;;1.15;;
73283;SDS011;61519;60.050;18.582;2023-02-05T08:50:16;2.47;;;1.07;;
73283;SDS011;61519;60.050;18.582;2023-02-05T08:52:41;3.35;;;1.20;;
73283;SDS011;61519;60.050;18.582;2023-02-05T08:55:07;3.70;;;1.10;;
73283;SDS011;61519;60.050;18.582;2023-02-05T08:57:32;3.73;;;1.70;;
73283;SDS011;61519;60.050;18.582;2023-02-05T08:59:58;62.50;;;26.45;;
73283;SDS011;61519;60.050;18.582;2023-02-05T09:02:24;19.83;;;8.53;;
73283;SDS011;61519;60.050;18.582;2023-02-05T09:04:49;39.88;;;16.27;;
73283;SDS011;61519;60.050;18.582;2023-02-05T09:07:15;94.87;;;37.70;;
73283;SDS011;61519;60.050;18.582;2023-02-05T09:09:41;31.63;;;12.17;;
73283;SDS011;61519;60.050;18.582;2023-02-05T09:12:06;23.67;;;9.90;;
73283;SDS011;61519;60.050;18.582;2023-02-05T09:14:34;14.83;;;6.17;;
73283;SDS011;61519;60.050;18.582;2023-02-05T09:17:03;14.85;;;5.70;;
73283;SDS011;61519;60.050;18.582;2023-02-05T09:19:29;18.58;;;6.90;;
73283;SDS011;61519;60.050;18.582;2023-02-05T09:21:58;10.80;;;4.78;;
73283;SDS011;61519;60.050;18.582;2023-02-05T09:24:23;6.90;;;3.47;;
73283;SDS011;61519;60.050;18.582;2023-02-05T09:26:49;5.37;;;2.20;;
73283;SDS011;61519;60.050;18.582;2023-02-05T09:29:15;3.67;;;1.52;;
73283;SDS011;61519;60.050;18.582;2023-02-05T09:31:40;3.43;;;1.30;;
73283;SDS011;61519;60.050;18.582;2023-02-05T09:34:06;2.73;;;1.33;;
73283;SDS011;61519;60.050;18.582;2023-02-05T09:36:31;2.40;;;1.17;;
73283;SDS011;61519;60.050;18.582;2023-02-05T09:38:56;3.97;;;1.43;;
73283;SDS011;61519;60.050;18.582;2023-02-05T09:49:25;4.13;;;1.20;;
73283;SDS011;61519;60.050;18.582;2023-02-05T09:52:18;3.20;;;1.42;;
73283;SDS011;61519;60.050;18.582;2023-02-05T09:54:45;2.83;;;1.30;;
73283;SDS011;61519;60.050;18.582;2023-02-05T09:57:15;3.47;;;1.63;;
73283;SDS011;61519;60.050;18.582;2023-02-05T09:59:44;2.53;;;1.30;;
73283;SDS011;61519;60.050;18.582;2023-02-05T10:02:34;2.70;;;1.08;;
73283;SDS011;61519;60.050;18.582;2023-02-05T10:05:15;3.17;;;1.30;;
73283;SDS011;61519;60.050;18.582;2023-02-05T10:10:26;2.38;;;0.90;;
73283;SDS011;61519;60.050;18.582;2023-02-05T10:16:09;4.50;;;1.27;;
73283;SDS011;61519;60.050;18.582;2023-02-05T10:18:42;17.95;;;8.05;;
73283;SDS011;61519;60.050;18.582;2023-02-05T10:24:11;6.72;;;3.35;;
73283;SDS011;61519;60.050;18.582;2023-02-05T10:26:50;6.35;;;4.20;;
73283;SDS011;61519;60.050;18.582;2023-02-05T10:34:45;5.30;;;1.90;;
73283;SDS011;61519;60.050;18.582;2023-02-05T10:37:28;2.88;;;1.33;;
73283;SDS011;61519;60.050;18.582;2023-02-05T10:40:05;2.50;;;1.20;;
73283;SDS011;61519;60.050;18.582;2023-02-05T10:42:40;2.77;;;1.07;;
73283;SDS011;61519;60.050;18.582;2023-02-05T10:45:33;2.83;;;1.10;;
73283;SDS011;61519;60.050;18.582;2023-02-05T10:50:44;4.82;;;2.20;;
73283;SDS011;61519;60.050;18.582;2023-02-05T10:53:16;6.25;;;1.30;;
73283;SDS011;61519;60.050;18.582;2023-02-05T10:55:43;5.43;;;1.20;;
73283;SDS011;61519;60.050;18.582;2023-02-05T10:58:21;3.75;;;0.95;;
73283;SDS011;61519;60.050;18.582;2023-02-05T11:00:48;5.30;;;3.08;;
73283;SDS011;61519;60.050;18.582;2023-02-05T11:03:15;5.13;;;2.47;;
73283;SDS011;61519;60.050;18.582;2023-02-05T11:05:41;2.87;;;1.23;;
73283;SDS011;61519;60.050;18.582;2023-02-05T11:11:05;46.95;;;9.00;;
73283;SDS011;61519;60.050;18.582;2023-02-05T11:13:32;42.78;;;8.60;;
73283;SDS011;61519;60.050;18.582;2023-02-05T11:16:03;10.75;;;3.05;;
73283;SDS011;61519;60.050;18.582;2023-02-05T11:18:39;10.38;;;3.20;;
73283;SDS011;61519;60.050;18.582;2023-02-05T11:21:07;19.88;;;3.95;;
73283;SDS011;61519;60.050;18.582;2023-02-05T11:23:33;16.50;;;4.67;;
73283;SDS011;61519;60.050;18.582;2023-02-05T11:26:15;24.42;;;5.57;;
73283;SDS011;61519;60.050;18.582;2023-02-05T11:28:41;11.25;;;2.40;;
73283;SDS011;61519;60.050;18.582;2023-02-05T11:33:44;9.77;;;6.70;;
73283;SDS011;61519;60.050;18.582;2023-02-05T11:36:17;4.33;;;1.87;;
73283;SDS011;61519;60.050;18.582;2023-02-05T11:41:26;3.03;;;1.33;;
73283;SDS011;61519;60.050;18.582;2023-02-05T11:43:55;5.63;;;1.40;;
73283;SDS011;61519;60.050;18.582;2023-02-05T11:46:23;3.08;;;1.25;;
73283;SDS011;61519;60.050;18.582;2023-02-05T11:51:27;4.03;;;1.60;;
73283;SDS011;61519;60.050;18.582;2023-02-05T11:53:53;2.70;;;0.95;;
73283;SDS011;61519;60.050;18.582;2023-02-05T11:56:21;3.45;;;1.20;;
73283;SDS011;61519;60.050;18.582;2023-02-05T11:58:56;4.07;;;1.20;;
73283;SDS011;61519;60.050;18.582;2023-02-05T12:01:40;2.97;;;1.08;;
73283;SDS011;61519;60.050;18.582;2023-02-05T12:09:13;3.65;;;1.40;;
73283;SDS011;61519;60.050;18.582;2023-02-05T12:14:55;3.40;;;1.40;;
73283;SDS011;61519;60.050;18.582;2023-02-05T12:20:28;2.75;;;0.98;;
73283;SDS011;61519;60.050;18.582;2023-02-05T12:23:08;2.85;;;1.23;;
73283;SDS011;61519;60.050;18.582;2023-02-05T12:34:26;3.33;;;1.27;;
73283;SDS011;61519;60.050;18.582;2023-02-05T12:39:46;3.30;;;1.40;;
73283;SDS011;61519;60.050;18.582;2023-02-05T12:42:46;3.08;;;1.30;;
73283;SDS011;61519;60.050;18.582;2023-02-05T12:45:38;5.30;;;1.40;;
73283;SDS011;61519;60.050;18.582;2023-02-05T12:59:00;3.35;;;1.52;;
73283;SDS011;61519;60.050;18.582;2023-02-05T13:01:42;3.63;;;1.10;;
73283;SDS011;61519;60.050;18.582;2023-02-05T13:04:18;4.03;;;1.10;;
73283;SDS011;61519;60.050;18.582;2023-02-05T13:06:49;2.50;;;1.20;;
73283;SDS011;61519;60.050;18.582;2023-02-05T13:09:27;4.73;;;2.03;;
73283;SDS011;61519;60.050;18.582;2023-02-05T13:11:59;4.90;;;1.52;;
73283;SDS011;61519;60.050;18.582;2023-02-05T13:14:30;5.28;;;2.35;;
73283;SDS011;61519;60.050;18.582;2023-02-05T13:17:02;3.17;;;1.48;;
73283;SDS011;61519;60.050;18.582;2023-02-05T13:19:32;3.50;;;1.13;;
73283;SDS011;61519;60.050;18.582;2023-02-05T13:22:15;4.18;;;1.20;;
73283;SDS011;61519;60.050;18.582;2023-02-05T13:25:41;3.85;;;1.23;;
73283;SDS011;61519;60.050;18.582;2023-02-05T13:28:39;4.10;;;1.70;;
73283;SDS011;61519;60.050;18.582;2023-02-05T13:31:21;5.03;;;1.75;;
73283;SDS011;61519;60.050;18.582;2023-02-05T13:33:48;3.63;;;1.50;;
73283;SDS011;61519;60.050;18.582;2023-02-05T13:36:26;3.05;;;1.10;;
73283;SDS011;61519;60.050;18.582;2023-02-05T13:42:07;6.78;;;3.53;;
73283;SDS011;61519;60.050;18.582;2023-02-05T13:44:49;3.72;;;1.33;;
73283;SDS011;61519;60.050;18.582;2023-02-05T14:00:38;3.50;;;1.23;;
73283;SDS011;61519;60.050;18.582;2023-02-05T14:03:05;9.75;;;1.42;;
73283;SDS011;61519;60.050;18.582;2023-02-05T14:05:34;6.07;;;1.48;;
73283;SDS011;61519;60.050;18.582;2023-02-05T14:08:02;9.48;;;1.33;;
73283;SDS011;61519;60.050;18.582;2023-02-05T14:10:29;4.47;;;1.43;;
73283;SDS011;61519;60.050;18.582;2023-02-05T14:15:50;12.93;;;4.18;;
73283;SDS011;61519;60.050;18.582;2023-02-05T14:23:55;3.70;;;1.45;;
73283;SDS011;61519;60.050;18.582;2023-02-05T14:32:04;3.30;;;1.03;;
73283;SDS011;61519;60.050;18.582;2023-02-05T14:36:58;7.37;;;2.00;;
73283;SDS011;61519;60.050;18.582;2023-02-05T14:39:33;7.57;;;1.57;;
73283;SDS011;61519;60.050;18.582;2023-02-05T14:42:01;10.90;;;1.92;;
73283;SDS011;61519;60.050;18.582;2023-02-05T14:44:33;11.13;;;1.70;;
73283;SDS011;61519;60.050;18.582;2023-02-05T14:47:20;7.65;;;1.90;;
73283;SDS011;61519;60.050;18.582;2023-02-05T14:49:47;15.23;;;3.37;;
73283;SDS011;61519;60.050;18.582;2023-02-05T14:55:01;10.82;;;3.03;;
73283;SDS011;61519;60.050;18.582;2023-02-05T14:57:43;9.52;;;2.20;;
73283;SDS011;61519;60.050;18.582;2023-02-05T15:00:29;10.40;;;2.20;;
73283;SDS011;61519;60.050;18.582;2023-02-05T15:03:07;14.13;;;2.72;;
73283;SDS011;61519;60.050;18.582;2023-02-05T15:08:21;7.20;;;1.70;;
73283;SDS011;61519;60.050;18.582;2023-02-05T15:16:40;3.97;;;1.70;;
73283;SDS011;61519;60.050;18.582;2023-02-05T15:19:05;5.70;;;2.17;;
73283;SDS011;61519;60.050;18.582;2023-02-05T15:21:41;4.33;;;1.33;;
73283;SDS011;61519;60.050;18.582;2023-02-05T15:24:17;4.50;;;2.13;;
73283;SDS011;61519;60.050;18.582;2023-02-05T15:26:46;8.65;;;3.53;;
73283;SDS011;61519;60.050;18.582;2023-02-05T15:29:21;13.27;;;6.37;;
73283;SDS011;61519;60.050;18.582;2023-02-05T15:31:51;7.93;;;4.38;;
73283;SDS011;61519;60.050;18.582;2023-02-05T15:42:53;11.98;;;3.58;;
73283;SDS011;61519;60.050;18.582;2023-02-05T15:47:58;5.20;;;1.67;;
73283;SDS011;61519;60.050;18.582;2023-02-05T15:50:25;7.28;;;2.58;;
73283;SDS011;61519;60.050;18.582;2023-02-05T15:52:51;6.07;;;1.98;;
73283;SDS011;61519;60.050;18.582;2023-02-05T15:55:17;4.97;;;2.20;;
73283;SDS011;61519;60.050;18.582;2023-02-05T15:57:45;5.68;;;2.08;;
73283;SDS011;61519;60.050;18.582;2023-02-05T16:00:24;5.20;;;1.97;;
73283;SDS011;61519;60.050;18.582;2023-02-05T16:02:55;7.38;;;3.00;;
73283;SDS011;61519;60.050;18.582;2023-02-05T16:05:24;14.88;;;5.20;;
73283;SDS011;61519;60.050;18.582;2023-02-05T16:07:51;7.93;;;3.50;;
73283;SDS011;61519;60.050;18.582;2023-02-05T16:10:25;8.57;;;4.82;;
73283;SDS011;61519;60.050;18.582;2023-02-05T16:13:05;6.28;;;2.08;;
73283;SDS011;61519;60.050;18.582;2023-02-05T16:18:05;6.18;;;3.10;;
73283;SDS011;61519;60.050;18.582;2023-02-05T16:20:36;4.72;;;2.10;;
73283;SDS011;61519;60.050;18.582;2023-02-05T16:23:12;3.70;;;1.80;;
73283;SDS011;61519;60.050;18.582;2023-02-05T16:25:57;4.53;;;1.87;;
73283;SDS011;61519;60.050;18.582;2023-02-05T16:28:37;7.95;;;1.77;;
73283;SDS011;61519;60.050;18.582;2023-02-05T16:31:06;3.90;;;1.63;;
73283;SDS011;61519;60.050;18.582;2023-02-05T16:35:59;4.97;;;1.55;;
73283;SDS011;61519;60.050;18.582;2023-02-05T16:38:29;19.92;;;10.30;;
73283;SDS011;61519;60.050;18.582;2023-02-05T16:40:56;34.08;;;19.50;;
73283;SDS011;61519;60.050;18.582;2023-02-05T16:46:09;7.50;;;3.50;;
73283;SDS011;61519;60.050;18.582;2023-02-05T16:53:51;3.70;;;1.38;;
73283;SDS011;61519;60.050;18.582;2023-02-05T16:56:30;4.47;;;1.47;;
73283;SDS011;61519;60.050;18.582;2023-02-05T16:58:57;7.70;;;2.95;;
73283;SDS011;61519;60.050;18.582;2023-02-05T17:01:28;7.35;;;2.50;;
73283;SDS011;61519;60.050;18.582;2023-02-05T17:04:04;4.53;;;2.20;;
73283;SDS011;61519;60.050;18.582;2023-02-05T17:06:34;4.90;;;1.60;;
73283;SDS011;61519;60.050;18.582;2023-02-05T17:09:00;4.37;;;1.47;;
73283;SDS011;61519;60.050;18.582;2023-02-05T17:11:41;5.95;;;2.20;;
73283;SDS011;61519;60.050;18.582;2023-02-05T17:16:53;9.50;;;4.13;;
73283;SDS011;61519;60.050;18.582;2023-02-05T17:19:40;5.30;;;2.45;;
73283;SDS011;61519;60.050;18.582;2023-02-05T17:24:44;7.20;;;2.80;;
73283;SDS011;61519;60.050;18.582;2023-02-05T17:27:32;13.43;;;4.07;;
73283;SDS011;61519;60.050;18.582;2023-02-05T17:29:57;8.80;;;3.33;;
73283;SDS011;61519;60.050;18.582;2023-02-05T17:32:23;5.53;;;3.17;;
73283;SDS011;61519;60.050;18.582;2023-02-05T17:34:50;6.15;;;3.00;;
73283;SDS011;61519;60.050;18.582;2023-02-05T17:37:15;9.73;;;3.30;;
73283;SDS011;61519;60.050;18.582;2023-02-05T17:39:41;6.37;;;2.67;;
73283;SDS011;61519;60.050;18.582;2023-02-05T17:42:10;4.57;;;1.75;;
73283;SDS011;61519;60.050;18.582;2023-02-05T17:44:45;3.55;;;1.52;;
73283;SDS011;61519;60.050;18.582;2023-02-05T17:47:11;6.70;;;3.83;;
73283;SDS011;61519;60.050;18.582;2023-02-05T17:49:36;11.05;;;4.65;;
73283;SDS011;61519;60.050;18.582;2023-02-05T17:52:02;5.27;;;2.53;;
73283;SDS011;61519;60.050;18.582;2023-02-05T17:54:28;5.97;;;2.30;;
73283;SDS011;61519;60.050;18.582;2023-02-05T17:56:54;5.55;;;2.72;;
73283;SDS011;61519;60.050;18.582;2023-02-05T17:59:22;5.35;;;1.83;;
73283;SDS011;61519;60.050;18.582;2023-02-05T18:01:49;3.38;;;1.58;;
73283;SDS011;61519;60.050;18.582;2023-02-05T18:04:15;4.45;;;2.08;;
73283;SDS011;61519;60.050;18.582;2023-02-05T18:06:42;4.03;;;1.70;;
73283;SDS011;61519;60.050;18.582;2023-02-05T18:09:09;6.32;;;2.67;;
73283;SDS011;61519;60.050;18.582;2023-02-05T18:11:36;9.48;;;3.95;;
73283;SDS011;61519;60.050;18.582;2023-02-05T18:14:02;4.50;;;2.10;;
73283;SDS011;61519;60.050;18.582;2023-02-05T18:16:27;7.10;;;3.08;;
73283;SDS011;61519;60.050;18.582;2023-02-05T18:18:53;3.73;;;1.73;;
73283;SDS011;61519;60.050;18.582;2023-02-05T18:21:18;3.80;;;1.53;;
73283;SDS011;61519;60.050;18.582;2023-02-05T18:23:45;6.03;;;3.28;;
73283;SDS011;61519;60.050;18.582;2023-02-05T18:26:11;23.48;;;4.82;;
73283;SDS011;61519;60.050;18.582;2023-02-05T18:28:36;67.17;;;13.33;;
73283;SDS011;61519;60.050;18.582;2023-02-05T18:31:05;271.13;;;32.80;;
73283;SDS011;61519;60.050;18.582;2023-02-05T18:33:32;408.05;;;46.88;;
73283;SDS011;61519;60.050;18.582;2023-02-05T18:36:08;97.80;;;16.42;;
73283;SDS011;61519;60.050;18.582;2023-02-05T18:38:34;22.77;;;6.63;;
73283;SDS011;61519;60.050;18.582;2023-02-05T18:41:11;8.75;;;3.97;;
73283;SDS011;61519;60.050;18.582;2023-02-05T18:43:38;15.38;;;5.13;;
73283;SDS011;61519;60.050;18.582;2023-02-05T18:46:08;63.37;;;19.90;;
73283;SDS011;61519;60.050;18.582;2023-02-05T18:48:38;16.65;;;6.45;;
73283;SDS011;61519;60.050;18.582;2023-02-05T18:51:05;13.37;;;6.03;;
73283;SDS011;61519;60.050;18.582;2023-02-05T18:53:32;7.50;;;2.92;;
73283;SDS011;61519;60.050;18.582;2023-02-05T18:56:01;7.07;;;3.38;;
73283;SDS011;61519;60.050;18.582;2023-02-05T18:58:28;5.05;;;1.73;;